createdAt,value
2022-08-11T00:02:01.192Z,101919.13
2022-08-11T00:04:37.135Z,101921.16
2022-08-11T00:07:06.907Z,101915.97
2022-08-11T00:09:40.134Z,101920.03
2022-08-11T00:12:18.151Z,101916.56
2022-08-11T00:14:46.709Z,101913.13
2022-08-11T00:17:17.435Z,101911.69
2022-08-11T00:20:14.300Z,101919.22
2022-08-11T00:23:10.495Z,101918.66
2022-08-11T00:25:52.020Z,101914.28
2022-08-11T00:28:32.568Z,101915.63
2022-08-11T00:31:08.116Z,101911.44
2022-08-11T00:33:45.461Z,101913.47
2022-08-11T00:36:22.074Z,101916.50
2022-08-11T00:39:14.416Z,101909.56
2022-08-11T00:42:38.283Z,101914.34
2022-08-11T00:45:50.141Z,101908.28
2022-08-11T00:48:39.691Z,101900.59
2022-08-11T00:52:05.106Z,101903.78
2022-08-11T00:54:52.165Z,101903.34
2022-08-11T00:58:02.714Z,101897.28
2022-08-11T01:01:09.092Z,101903.06
2022-08-11T01:04:09.686Z,101907.09
2022-08-11T01:06:59.765Z,101908.28
2022-08-11T01:10:10.970Z,101908.56
2022-08-11T01:13:00.370Z,101903.66
2022-08-11T01:16:01.407Z,101910.59
2022-08-11T01:19:04.704Z,101908.25
2022-08-11T01:22:15.914Z,101908.84
2022-08-11T01:25:29.411Z,101911.41
2022-08-11T01:28:55.003Z,101907.66
2022-08-11T01:31:57.481Z,101913.72
2022-08-11T01:35:30.347Z,101915.16
2022-08-11T01:38:58.408Z,101915.72
2022-08-11T01:42:31.779Z,101917.13
2022-08-11T01:45:37.960Z,101908.72
2022-08-11T01:48:51.036Z,101908.41
2022-08-11T01:51:30.174Z,101907.22
2022-08-11T01:54:17.611Z,101908.50
2022-08-11T01:57:42.942Z,101909.66
2022-08-11T02:00:18.506Z,101909.78
2022-08-11T02:03:36.593Z,101906.34
2022-08-11T02:06:44.364Z,101900.13
2022-08-11T02:10:35.391Z,101905.59
2022-08-11T02:13:44.755Z,101898.66
2022-08-11T02:16:54.818Z,101905.16
2022-08-11T02:20:00.999Z,101907.44
2022-08-11T02:22:49.464Z,101903.22
2022-08-11T02:25:49.126Z,101905.25
2022-08-11T02:28:30.379Z,101906.38
2022-08-11T02:32:24.609Z,101904.66
2022-08-11T02:34:59.312Z,101912.28
2022-08-11T02:38:35.764Z,101895.25
2022-08-11T02:41:31.784Z,101900.97
2022-08-11T02:44:54.937Z,101898.66
2022-08-11T02:48:34.665Z,101900.94
2022-08-11T02:51:29.034Z,101888.53
2022-08-11T02:54:55.884Z,101907.22
2022-08-11T02:57:37.950Z,101901.97
2022-08-11T03:00:14.424Z,101903.13
2022-08-11T03:03:07.572Z,101906.00
2022-08-11T03:06:09.717Z,101902.53
2022-08-11T03:09:14.162Z,101904.78
2022-08-11T03:12:09.942Z,101897.56
2022-08-11T03:15:37.648Z,101908.81
2022-08-11T03:18:48.305Z,101900.13
2022-08-11T03:22:01.154Z,101899.41
2022-08-11T03:24:31.254Z,101903.25
2022-08-11T03:27:07.763Z,101902.38
2022-08-11T03:29:47.792Z,101898.91
2022-08-11T03:33:55.544Z,101891.69
2022-08-11T03:37:15.433Z,101899.19
2022-08-11T03:39:59.978Z,101902.03
2022-08-11T03:42:57.087Z,101894.97
2022-08-11T03:45:40.931Z,101897.97
2022-08-11T03:48:14.223Z,101894.50
2022-08-11T03:51:14.116Z,101896.50
2022-08-11T03:54:28.392Z,101887.56
2022-08-11T03:57:19.372Z,101891.44
2022-08-11T04:00:13.166Z,101891.56
2022-08-11T04:03:31.053Z,101896.31
2022-08-11T04:06:42.306Z,101883.16
2022-08-11T04:10:05.354Z,101891.63
2022-08-11T04:12:59.832Z,101893.63
2022-08-11T04:16:11.694Z,101895.75
2022-08-11T04:19:04.354Z,101894.13
2022-08-11T04:22:07.172Z,101886.19
2022-08-11T04:25:08.217Z,101884.59
2022-08-11T04:27:59.485Z,101887.44
2022-08-11T04:31:08.026Z,101892.19
2022-08-11T04:33:53.887Z,101894.91
2022-08-11T04:37:34.169Z,101892.19
2022-08-11T04:40:54.817Z,101886.63
2022-08-11T04:44:05.797Z,101892.53
2022-08-11T04:46:51.363Z,101898.47
2022-08-11T04:50:17.172Z,101893.56
2022-08-11T04:53:40.504Z,101888.84
2022-08-11T04:56:36.316Z,101883.09
2022-08-11T05:00:11.425Z,101890.66
2022-08-11T05:03:11.836Z,101891.09
2022-08-11T05:05:56.506Z,101893.66
2022-08-11T05:08:36.187Z,101897.66
2022-08-11T05:11:28.513Z,101887.09
2022-08-11T05:14:36.959Z,101890.97
2022-08-11T05:17:40.568Z,101888.38
2022-08-11T05:20:31.159Z,101886.63
2022-08-11T05:23:27.197Z,101894.44
2022-08-11T05:26:47.405Z,101888.72
2022-08-11T05:29:47.243Z,101891.78
2022-08-11T05:32:36.874Z,101889.38
2022-08-11T05:35:07.638Z,101895.19
2022-08-11T05:38:03.221Z,101893.81
2022-08-11T05:40:53.264Z,101905.06
2022-08-11T05:44:20.005Z,101898.34
2022-08-11T05:47:00.829Z,101895.91
2022-08-11T05:49:52.153Z,101902.75
2022-08-11T05:52:49.291Z,101897.75
2022-08-11T05:55:53.958Z,101907.00
2022-08-11T05:58:42.578Z,101907.06
2022-08-11T06:01:13.096Z,101906.53
2022-08-11T06:04:04.266Z,101914.44
2022-08-11T06:06:32.202Z,101911.31
2022-08-11T06:09:01.969Z,101910.88
2022-08-11T06:11:43.654Z,101904.88
2022-08-11T06:14:15.569Z,101907.78
2022-08-11T06:16:48.545Z,101913.28
2022-08-11T06:19:19.617Z,101916.81
2022-08-11T06:21:48.584Z,101921.44
2022-08-11T06:24:16.822Z,101922.66
2022-08-11T06:29:55.148Z,101923.25
2022-08-11T06:32:32.938Z,101916.06
2022-08-11T06:38:16.289Z,101910.56
2022-08-11T06:41:25.910Z,101911.31
2022-08-11T06:44:14.723Z,101907.97
2022-08-11T06:46:54.677Z,101918.06
2022-08-11T06:49:52.434Z,101918.59
2022-08-11T06:52:35.223Z,101919.47
2022-08-11T06:55:55.763Z,101922.31
2022-08-11T06:58:21.210Z,101923.16
2022-08-11T07:00:57.084Z,101927.41
2022-08-11T07:03:31.917Z,101924.53
2022-08-11T07:06:50.566Z,101925.03
2022-08-11T07:10:12.488Z,101918.69
2022-08-11T07:13:03.201Z,101914.31
2022-08-11T07:16:11.281Z,101913.72
2022-08-11T07:18:56.350Z,101916.44
2022-08-11T07:22:01.183Z,101911.38
2022-08-11T07:25:03.077Z,101922.13
2022-08-11T07:28:02.233Z,101921.25
2022-08-11T07:30:33.100Z,101923.81
2022-08-11T07:33:03.714Z,101920.59
2022-08-11T07:35:42.877Z,101914.75
2022-08-11T07:38:22.837Z,101922.00
2022-08-11T07:40:52.931Z,101922.88
2022-08-11T07:43:20.280Z,101910.94
2022-08-11T07:46:06.326Z,101922.44
2022-08-11T07:48:53.656Z,101923.72
2022-08-11T07:51:40.102Z,101918.50
2022-08-11T07:54:16.705Z,101926.16
2022-08-11T07:57:07.254Z,101927.66
2022-08-11T08:00:03.873Z,101934.59
2022-08-11T08:03:18.743Z,101923.72
2022-08-11T08:06:28.411Z,101925.66
2022-08-11T08:09:16.317Z,101928.22
2022-08-11T08:12:04.619Z,101924.13
2022-08-11T08:14:52.638Z,101928.09
2022-08-11T08:17:41.125Z,101930.50
2022-08-11T08:20:14.597Z,101930.59
2022-08-11T08:22:46.484Z,101936.25
2022-08-11T08:25:18.034Z,101924.41
2022-08-11T08:27:45.968Z,101928.91
2022-08-11T08:30:32.410Z,101935.03
2022-08-11T08:33:01.041Z,101927.13
2022-08-11T08:35:32.947Z,101926.06
2022-08-11T08:38:01.063Z,101925.00
2022-08-11T08:40:28.531Z,101923.81
2022-08-11T08:43:18.457Z,101922.56
2022-08-11T08:45:46.268Z,101923.34
2022-08-11T08:48:17.053Z,101926.06
2022-08-11T08:51:21.853Z,101925.44
2022-08-11T08:53:54.034Z,101927.59
2022-08-11T08:56:30.142Z,101931.19
2022-08-11T08:59:21.316Z,101924.69
2022-08-11T09:02:08.133Z,101920.38
2022-08-11T09:04:35.965Z,101917.75
2022-08-11T09:07:26.492Z,101926.31
2022-08-11T09:09:59.111Z,101921.97
2022-08-11T09:12:35.708Z,101923.22
2022-08-11T09:15:10.036Z,101922.78
2022-08-11T09:18:03.737Z,101917.66
2022-08-11T09:20:50.980Z,101914.63
2022-08-11T09:26:43.658Z,101917.41
2022-08-11T09:29:12.257Z,101917.56
2022-08-11T09:31:40.623Z,101914.97
2022-08-11T09:34:11.526Z,101909.41
2022-08-11T09:37:01.389Z,101912.81
2022-08-11T09:39:49.928Z,101909.84
2022-08-11T09:42:56.462Z,101905.84
2022-08-11T09:45:23.889Z,101903.06
2022-08-11T09:47:51.461Z,101906.06
2022-08-11T09:50:19.409Z,101898.63
2022-08-11T09:53:16.943Z,101898.84
2022-08-11T09:56:21.235Z,101892.06
2022-08-11T09:58:48.821Z,101896.38
2022-08-11T10:01:28.441Z,101891.84
2022-08-11T10:04:01.353Z,101891.84
2022-08-11T10:07:05.396Z,101897.22
2022-08-11T10:10:01.152Z,101890.16
2022-08-11T10:12:42.448Z,101889.53
2022-08-11T10:15:34.322Z,101881.44
2022-08-11T10:18:31.259Z,101878.03
2022-08-11T10:21:09.248Z,101872.25
2022-08-11T10:24:00.571Z,101868.22
2022-08-11T10:26:53.859Z,101873.34
2022-08-11T10:29:49.533Z,101865.19
2022-08-11T10:32:57.797Z,101869.50
2022-08-11T10:35:26.805Z,101869.72
2022-08-11T10:38:15.938Z,101867.34
2022-08-11T10:41:07.836Z,101873.13
2022-08-11T10:44:01.450Z,101864.78
2022-08-11T10:46:45.804Z,101860.91
2022-08-11T10:49:13.642Z,101862.63
2022-08-11T10:52:00.846Z,101859.59
2022-08-11T10:54:47.265Z,101857.25
2022-08-11T10:57:36.241Z,101854.03
2022-08-11T11:00:06.857Z,101855.75
2022-08-11T11:02:35.195Z,101851.91
2022-08-11T11:05:30.504Z,101856.16
2022-08-11T11:08:34.744Z,101842.22
2022-08-11T11:11:49.233Z,101843.28
2022-08-11T11:14:46.015Z,101844.59
2022-08-11T11:18:11.654Z,101841.16
2022-08-11T11:20:47.306Z,101842.00
2022-08-11T11:24:16.603Z,101839.16
2022-08-11T11:27:00.745Z,101832.00
2022-08-11T11:30:01.422Z,101833.66
2022-08-11T11:32:49.992Z,101832.75
2022-08-11T11:35:44.908Z,101822.34
2022-08-11T11:38:14.274Z,101831.78
2022-08-11T11:40:42.364Z,101834.09
2022-08-11T11:43:10.999Z,101832.06
2022-08-11T11:45:41.416Z,101824.31
2022-08-11T11:48:09.249Z,101823.28
2022-08-11T11:50:38.226Z,101822.53
2022-08-11T11:53:10.463Z,101831.31
2022-08-11T11:55:38.058Z,101826.28
2022-08-11T11:58:25.606Z,101812.19
2022-08-11T12:01:13.158Z,101812.53
2022-08-11T12:03:41.087Z,101814.56
2022-08-11T12:06:14.024Z,101814.25
2022-08-11T12:08:43.862Z,101807.47
2022-08-11T12:11:31.817Z,101811.25
2022-08-11T12:14:04.773Z,101801.38
2022-08-11T12:16:43.429Z,101806.06
2022-08-11T12:19:17.574Z,101796.13
2022-08-11T12:22:23.260Z,101792.88
2022-08-11T12:25:09.289Z,101792.09
2022-08-11T12:27:56.958Z,101789.75
2022-08-11T12:30:25.079Z,101777.22
2022-08-11T12:32:52.958Z,101780.94
2022-08-11T12:35:19.936Z,101783.47
2022-08-11T12:38:01.222Z,101772.59
2022-08-11T12:41:15.110Z,101775.78
2022-08-11T12:44:04.007Z,101770.66
2022-08-11T12:46:45.906Z,101768.41
2022-08-11T12:49:41.883Z,101771.47
2022-08-11T12:52:23.844Z,101757.19
2022-08-11T12:55:13.455Z,101759.97
2022-08-11T12:58:06.097Z,101757.19
2022-08-11T13:00:56.993Z,101751.84
2022-08-11T13:03:43.448Z,101741.69
2022-08-11T13:06:31.534Z,101741.59
2022-08-11T13:09:01.506Z,101741.81
2022-08-11T13:11:56.673Z,101747.69
2022-08-11T13:14:27.342Z,101743.19
2022-08-11T13:17:13.209Z,101740.50
2022-08-11T13:19:47.458Z,101731.72
2022-08-11T13:22:20.192Z,101726.84
2022-08-11T13:24:50.058Z,101732.09
2022-08-11T13:27:19.435Z,101721.81
2022-08-11T13:29:49.116Z,101720.56
2022-08-11T13:32:20.253Z,101713.56
2022-08-11T13:34:48.577Z,101718.53
2022-08-11T13:37:19.438Z,101723.84
2022-08-11T13:40:07.792Z,101717.66
2022-08-11T13:42:36.552Z,101711.78
2022-08-11T13:45:04.646Z,101708.34
2022-08-11T13:47:32.775Z,101710.31
2022-08-11T13:50:08.594Z,101710.59
2022-08-11T13:52:42.464Z,101706.06
2022-08-11T13:55:51.022Z,101711.34
2022-08-11T13:58:20.600Z,101711.66
2022-08-11T14:00:59.898Z,101708.69
2022-08-11T14:04:28.438Z,101702.31
2022-08-11T14:06:45.236Z,101705.28
2022-08-11T14:09:18.257Z,101694.81
2022-08-11T14:12:34.134Z,101701.09
2022-08-11T14:15:14.450Z,101688.03
2022-08-11T14:17:48.914Z,101686.84
2022-08-11T14:20:39.836Z,101696.34
2022-08-11T14:23:14.109Z,101688.69
2022-08-11T14:26:20.813Z,101679.59
2022-08-11T14:28:48.557Z,101672.75
2022-08-11T14:31:16.831Z,101677.75
2022-08-11T14:34:00.107Z,101670.31
2022-08-11T14:36:43.141Z,101676.75
2022-08-11T14:39:22.557Z,101669.03
2022-08-11T14:42:13.659Z,101675.28
2022-08-11T14:45:07.520Z,101669.28
2022-08-11T14:47:39.488Z,101667.25
2022-08-11T14:50:14.036Z,101665.13
2022-08-11T14:53:18.819Z,101664.00
2022-08-11T14:56:05.152Z,101666.81
2022-08-11T14:58:33.896Z,101672.13
2022-08-11T15:01:03.638Z,101660.53
2022-08-11T15:03:33.729Z,101659.34
2022-08-11T15:06:05.028Z,101653.09
2022-08-11T15:08:55.062Z,101653.00
2022-08-11T15:11:44.243Z,101652.34
2022-08-11T15:14:13.775Z,101643.19
2022-08-11T15:17:04.037Z,101639.56
2022-08-11T15:19:40.106Z,101634.47
2022-08-11T15:22:29.310Z,101635.88
2022-08-11T15:25:00.183Z,101626.22
2022-08-11T15:27:49.513Z,101631.06
2022-08-11T15:30:36.046Z,101627.16
2022-08-11T15:33:27.628Z,101623.97
2022-08-11T15:36:26.135Z,101622.03
2022-08-11T15:39:20.947Z,101624.16
2022-08-11T15:42:19.563Z,101621.78
2022-08-11T15:45:13.176Z,101607.50
2022-08-11T15:47:57.568Z,101619.22
2022-08-11T15:50:40.939Z,101621.41
2022-08-11T15:53:56.762Z,101621.09
2022-08-11T15:56:31.961Z,101617.31
2022-08-11T15:59:42.904Z,101610.53
2022-08-11T16:02:32.221Z,101605.28
2022-08-11T16:05:45.975Z,101602.59
2022-08-11T16:08:32.901Z,101603.59
2022-08-11T16:11:03.962Z,101593.06
2022-08-11T16:13:42.024Z,101604.56
2022-08-11T16:16:14.806Z,101596.25
2022-08-11T16:18:52.089Z,101593.59
2022-08-11T16:21:34.865Z,101590.50
2022-08-11T16:24:08.160Z,101590.63
2022-08-11T16:27:09.188Z,101591.03
2022-08-11T16:29:32.192Z,101576.59
2022-08-11T16:32:17.553Z,101589.72
2022-08-11T16:35:29.236Z,101588.22
2022-08-11T16:38:35.572Z,101583.53
2022-08-11T16:41:11.476Z,101581.25
2022-08-11T16:44:03.238Z,101587.53
2022-08-11T16:46:51.724Z,101570.97
2022-08-11T16:49:36.705Z,101570.19
2022-08-11T16:52:10.950Z,101577.56
2022-08-11T16:54:44.398Z,101572.56
2022-08-11T16:57:59.241Z,101572.06
2022-08-11T17:00:41.392Z,101565.81
2022-08-11T17:03:52.047Z,101567.94
2022-08-11T17:06:39.867Z,101567.03
2022-08-11T17:09:48.996Z,101569.38
2022-08-11T17:12:58.831Z,101563.34
2022-08-11T17:15:46.739Z,101562.69
2022-08-11T17:18:39.844Z,101561.97
2022-08-11T17:21:12.757Z,101557.59
2022-08-11T17:23:49.898Z,101561.63
2022-08-11T17:26:27.270Z,101559.22
2022-08-11T17:29:00.931Z,101565.03
2022-08-11T17:32:08.349Z,101557.13
2022-08-11T17:34:54.714Z,101557.78
2022-08-11T17:37:24.590Z,101565.66
2022-08-11T17:39:53.978Z,101561.06
2022-08-11T17:42:42.638Z,101563.38
2022-08-11T17:45:30.852Z,101559.88
2022-08-11T17:48:20.228Z,101565.69
2022-08-11T17:50:49.951Z,101555.22
2022-08-11T17:53:38.001Z,101568.38
2022-08-11T17:56:46.658Z,101556.00
2022-08-11T17:59:34.637Z,101557.38
2022-08-11T18:02:34.387Z,101553.16
2022-08-11T18:05:12.269Z,101554.50
2022-08-11T18:08:02.866Z,101551.94
2022-08-11T18:10:51.603Z,101556.97
2022-08-11T18:13:42.661Z,101559.38
2022-08-11T18:16:29.459Z,101563.50
2022-08-11T18:19:16.588Z,101563.72
2022-08-11T18:22:15.180Z,101568.28
2022-08-11T18:25:33.729Z,101556.28
2022-08-11T18:28:39.910Z,101561.25
2022-08-11T18:31:32.949Z,101562.78
2022-08-11T18:34:25.491Z,101565.16
2022-08-11T18:37:29.466Z,101566.47
2022-08-11T18:40:29.364Z,101565.84
2022-08-11T18:43:39.505Z,101573.41
2022-08-11T18:46:51.861Z,101567.56
2022-08-11T18:50:03.606Z,101579.16
2022-08-11T18:52:53.086Z,101572.53
2022-08-11T18:55:39.409Z,101575.94
2022-08-11T18:58:49.778Z,101574.88
2022-08-11T19:01:37.461Z,101578.25
2022-08-11T19:04:46.711Z,101578.88
2022-08-11T19:07:35.464Z,101580.13
2022-08-11T19:10:24.426Z,101585.69
2022-08-11T19:13:11.900Z,101583.50
2022-08-11T19:15:59.411Z,101585.13
2022-08-11T19:19:08.226Z,101584.84
2022-08-11T19:22:15.670Z,101599.53
2022-08-11T19:25:12.091Z,101594.38
2022-08-11T19:28:02.168Z,101600.28
2022-08-11T19:30:47.931Z,101602.56
2022-08-11T19:33:59.824Z,101603.75
2022-08-11T19:36:43.206Z,101608.16
2022-08-11T19:39:32.132Z,101611.94
2022-08-11T19:42:20.446Z,101609.31
2022-08-11T19:45:07.286Z,101606.03
2022-08-11T19:48:08.163Z,101603.41
2022-08-11T19:51:01.735Z,101603.53
2022-08-11T19:53:51.899Z,101608.13
2022-08-11T19:56:37.820Z,101604.63
2022-08-11T19:59:26.317Z,101607.16
2022-08-11T20:02:13.505Z,101614.53
2022-08-11T20:05:20.311Z,101609.09
2022-08-11T20:08:27.575Z,101611.34
2022-08-11T20:11:15.789Z,101612.31
2022-08-11T20:14:03.285Z,101608.81
2022-08-11T20:16:51.172Z,101606.81
2022-08-11T20:22:49.251Z,101610.66
2022-08-11T20:25:38.433Z,101614.16
2022-08-11T20:28:25.469Z,101622.41
2022-08-11T20:31:12.754Z,101612.06
2022-08-11T20:34:01.630Z,101614.97
2022-08-11T20:36:54.087Z,101614.84
2022-08-11T20:39:43.162Z,101609.44
2022-08-11T20:42:50.854Z,101609.69
2022-08-11T20:45:38.462Z,101607.84
2022-08-11T20:48:43.345Z,101607.94
2022-08-11T20:54:43.760Z,101615.16
2022-08-11T20:57:58.873Z,101609.31
2022-08-11T21:00:44.234Z,101622.16
2022-08-11T21:03:35.746Z,101613.56
2022-08-11T21:06:26.339Z,101619.84
2022-08-11T21:09:58.845Z,101616.97
2022-08-11T21:12:50.752Z,101621.53
2022-08-11T21:16:01.217Z,101619.28
2022-08-11T21:18:52.240Z,101628.31
2022-08-11T21:21:45.589Z,101630.09
2022-08-11T21:24:37.301Z,101621.84
2022-08-11T21:27:35.232Z,101630.22
2022-08-11T21:30:24.214Z,101624.03
2022-08-11T21:33:13.041Z,101624.78
2022-08-11T21:36:01.266Z,101625.88
2022-08-11T21:38:49.138Z,101623.81
2022-08-11T21:41:37.169Z,101624.72
2022-08-11T21:44:45.174Z,101627.50
2022-08-11T21:48:01.170Z,101618.38
2022-08-11T21:50:47.908Z,101627.56
2022-08-11T21:53:35.427Z,101627.75
2022-08-11T21:56:27.289Z,101621.25
2022-08-11T21:59:17.027Z,101626.59
2022-08-11T22:02:05.383Z,101624.34
2022-08-11T22:04:55.253Z,101620.41
2022-08-11T22:07:42.058Z,101620.94
2022-08-11T22:10:41.183Z,101618.88
2022-08-11T22:13:31.192Z,101619.53
2022-08-11T22:16:18.545Z,101622.81
2022-08-11T22:19:09.521Z,101618.00
2022-08-11T22:22:18.810Z,101623.00
2022-08-11T22:25:16.241Z,101620.78
2022-08-11T22:28:03.815Z,101624.06
2022-08-11T22:30:49.835Z,101615.44
2022-08-11T22:33:36.693Z,101608.56
2022-08-11T22:36:29.912Z,101621.13
2022-08-11T22:39:19.881Z,101615.09
2022-08-11T22:42:05.503Z,101615.81
2022-08-11T22:44:51.479Z,101615.44
2022-08-11T22:47:54.519Z,101610.59
2022-08-11T22:50:40.395Z,101607.53
2022-08-11T22:53:27.339Z,101608.88
2022-08-11T22:56:33.573Z,101604.03
2022-08-11T22:59:19.784Z,101600.75
2022-08-11T23:02:05.818Z,101601.25
2022-08-11T23:05:11.787Z,101599.16
2022-08-11T23:08:16.105Z,101606.06
2022-08-11T23:11:22.175Z,101602.94
2022-08-11T23:14:10.136Z,101594.31
2022-08-11T23:16:57.526Z,101599.28
2022-08-11T23:20:06.899Z,101604.28
2022-08-11T23:22:51.972Z,101600.31
2022-08-11T23:25:37.485Z,101599.78
2022-08-11T23:28:45.182Z,101606.50
2022-08-11T23:31:51.278Z,101608.56
2022-08-11T23:35:04.112Z,101605.28
2022-08-11T23:37:59.809Z,101602.84
2022-08-11T23:40:46.129Z,101601.28
2022-08-11T23:43:40.461Z,101599.72
2022-08-11T23:46:25.753Z,101597.47
2022-08-11T23:49:17.679Z,101598.69
2022-08-11T23:52:05.922Z,101596.41
2022-08-11T23:54:54.021Z,101603.41
2022-08-11T23:57:47.772Z,101596.53
